Time;durP1;ratioP1;P1;durP2;ratioP2;P2;SDS_P1;SDS_P2;PMS_P1;PMS_P2;Temp;Humidity;BMP_temperature;BMP_pressure;BME280_temperature;BME280_humidity;BME280_pressure;Samples;Min_cycle;Max_cycle;Signal;HPM_P1;HPM_P2
2023/09/03 00:00:54;;;;;;;;;;;18.80;55.50;;;14.96;100.00;96088.53;4992100;28;19917;-54
2023/09/03 00:03:21;;;;;;;;;;;18.80;55.60;;;14.91;100.00;96086.69;4982114;28;20355;-48
2023/09/03 00:05:53;;;;;;;;;;;18.80;55.60;;;14.83;100.00;96094.56;4992279;28;19917;-50
2023/09/03 00:08:22;;;;;;;;;;;18.80;55.70;;;14.78;100.00;96092.69;4990733;28;20312;-46
2023/09/03 00:10:54;;;;;;;;;;;18.80;55.80;;;14.76;100.00;96098.34;4992408;28;19917;-47
2023/09/03 00:13:21;;;;;;;;;;;18.70;55.70;;;14.72;100.00;96102.63;4991440;28;19935;-50
2023/09/03 00:15:47;;;;;;;;;;;18.70;55.80;;;14.69;100.00;96097.03;4984413;28;19910;-51
2023/09/03 00:18:14;;;;;;;;;;;18.70;55.90;;;14.60;100.00;96086.09;4991704;28;19913;-48
2023/09/03 00:20:53;;;;;;;;;;;18.60;55.90;;;14.55;100.00;96091.50;4982897;28;19909;-46
2023/09/03 00:23:19;;;;;;;;;;;18.60;56.00;;;14.51;100.00;96101.97;4991741;28;19909;-44
2023/09/03 00:25:44;;;;;;;;;;;18.50;56.10;;;14.51;100.00;96095.81;4984631;28;19921;-46
2023/09/03 00:28:10;;;;;;;;;;;18.50;56.20;;;14.48;100.00;96099.81;4986344;28;19996;-46
2023/09/03 00:30:36;;;;;;;;;;;18.40;56.20;;;14.44;100.00;96108.66;4992061;28;19916;-46
2023/09/03 00:33:01;;;;;;;;;;;18.40;56.20;;;14.36;100.00;96102.03;4988877;28;19909;-47
2023/09/03 00:35:27;;;;;;;;;;;18.40;56.30;;;14.32;100.00;96109.00;4991869;28;19909;-46
2023/09/03 00:37:53;;;;;;;;;;;18.30;56.30;;;14.25;100.00;96109.28;4990111;28;19909;-47
2023/09/03 00:40:19;;;;;;;;;;;18.30;56.40;;;14.20;100.00;96112.00;4991712;28;19964;-51
2023/09/03 00:42:45;;;;;;;;;;;18.20;56.50;;;14.08;100.00;96123.03;4991742;28;19916;-48
2023/09/03 00:45:10;;;;;;;;;;;18.20;56.50;;;14.06;100.00;96109.09;4957129;28;20270;-47
2023/09/03 00:47:36;;;;;;;;;;;18.20;56.60;;;14.05;100.00;96114.75;4990992;28;19917;-48
2023/09/03 00:50:03;;;;;;;;;;;18.10;56.60;;;14.02;100.00;96113.41;4973595;28;19909;-49
2023/09/03 00:52:31;;;;;;;;;;;18.10;56.70;;;13.98;100.00;96120.41;4990632;28;20362;-49
2023/09/03 00:54:58;;;;;;;;;;;18.00;56.70;;;13.94;100.00;96116.63;4973266;28;19916;-48
2023/09/03 00:57:24;;;;;;;;;;;18.00;56.90;;;13.92;100.00;96123.38;4988292;28;19996;-49
2023/09/03 00:59:53;;;;;;;;;;;17.90;56.90;;;13.86;100.00;96127.91;4992044;28;19988;-48
2023/09/03 01:02:20;;;;;;;;;;;17.90;57.00;;;13.79;100.00;96127.41;4972130;28;19909;-48
2023/09/03 01:04:45;;;;;;;;;;;17.90;57.10;;;13.81;100.00;96126.03;4958219;28;19924;-49
2023/09/03 01:07:15;;;;;;;;;;;17.80;57.80;;;13.82;100.00;96125.00;4988187;28;19917;-49
2023/09/03 01:09:41;;;;;;;;;;;17.80;57.30;;;13.80;100.00;96119.09;4981619;28;19909;-48
2023/09/03 01:12:24;;;;;;;;;;;17.80;57.40;;;13.78;100.00;96123.13;4991830;28;19979;-49
2023/09/03 01:14:59;;;;;;;;;;;17.80;57.50;;;13.80;100.00;96132.47;4965813;28;19910;-49
2023/09/03 01:17:39;;;;;;;;;;;17.80;57.60;;;13.80;100.00;96137.84;4988527;28;19928;-53
2023/09/03 01:20:22;;;;;;;;;;;17.70;58.30;;;13.75;100.00;96140.50;4998503;28;19910;-51
2023/09/03 01:23:02;;;;;;;;;;;17.70;57.70;;;13.73;100.00;96137.31;4978619;28;20009;-49
2023/09/03 01:26:18;;;;;;;;;;;17.70;57.80;;;13.65;100.00;96135.19;4990002;28;19925;-46
2023/09/03 01:28:47;;;;;;;;;;;17.70;57.70;;;13.65;100.00;96135.97;4994492;28;19916;-52
2023/09/03 01:31:17;;;;;;;;;;;17.70;58.50;;;13.65;100.00;96132.50;4994179;28;20052;-49
2023/09/03 01:33:46;;;;;;;;;;;17.60;58.00;;;13.67;100.00;96135.72;4978132;28;19914;-53
2023/09/03 01:36:14;;;;;;;;;;;17.60;58.10;;;13.67;100.00;96137.59;4995212;28;19957;-51
2023/09/03 01:38:40;;;;;;;;;;;17.60;58.20;;;13.64;100.00;96141.63;4970413;28;19910;-49
2023/09/03 01:41:07;;;;;;;;;;;17.60;58.20;;;13.60;100.00;96143.22;4995081;28;19916;-51
2023/09/03 01:43:34;;;;;;;;;;;17.60;58.20;;;13.57;100.00;96136.53;4993839;28;19917;-48
2023/09/03 01:46:31;;;;;;;;;;;17.60;58.20;;;13.55;100.00;96145.91;4993578;28;19913;-47
2023/09/03 01:49:22;;;;;;;;;;;17.60;58.30;;;13.54;100.00;96149.66;4976761;28;19943;-51
2023/09/03 01:52:35;;;;;;;;;;;17.60;58.40;;;13.49;100.00;96147.78;4985392;28;19909;-49
2023/09/03 01:55:08;;;;;;;;;;;17.60;58.50;;;13.51;100.00;96153.69;4971994;28;19910;-53
2023/09/03 01:57:47;;;;;;;;;;;17.50;58.60;;;13.51;100.00;96150.22;4994608;28;19909;-51
2023/09/03 02:00:17;;;;;;;;;;;17.50;58.60;;;13.52;100.00;96146.44;4990601;28;20338;-50
2023/09/03 02:02:51;;;;;;;;;;;17.50;58.70;;;13.53;100.00;96148.03;4990136;28;20351;-48
2023/09/03 02:05:17;;;;;;;;;;;17.50;58.70;;;13.53;100.00;96153.41;4977857;28;20007;-45
2023/09/03 02:07:43;;;;;;;;;;;17.50;58.80;;;13.53;100.00;96154.19;4993137;28;19964;-47
2023/09/03 02:10:10;;;;;;;;;;;17.50;58.80;;;13.51;100.00;96159.03;4993968;28;19936;-51
2023/09/03 02:12:36;;;;;;;;;;;17.50;58.80;;;13.50;100.00;96161.97;4977185;28;20291;-49
2023/09/03 02:15:02;;;;;;;;;;;17.50;58.90;;;13.50;100.00;96159.28;4982947;28;19917;-53
2023/09/03 02:17:28;;;;;;;;;;;17.50;59.00;;;13.53;100.00;96156.88;4994193;28;19943;-51
2023/09/03 02:19:54;;;;;;;;;;;17.50;59.00;;;13.53;100.00;96151.53;4992651;28;20288;-48
2023/09/03 02:22:20;;;;;;;;;;;17.50;59.10;;;13.55;100.00;96149.38;4994352;28;20019;-47
2023/09/03 02:24:46;;;;;;;;;;;17.50;59.10;;;13.57;100.00;96149.94;4993743;28;20004;-47
2023/09/03 02:27:12;;;;;;;;;;;17.60;59.30;;;13.63;100.00;96156.06;4992538;28;19913;-48
2023/09/03 02:29:39;;;;;;;;;;;17.60;59.40;;;13.65;100.00;96153.94;4993631;28;19959;-50
2023/09/03 02:32:06;;;;;;;;;;;17.60;59.40;;;13.64;100.00;96150.44;4992929;28;20346;-51
2023/09/03 02:34:32;;;;;;;;;;;17.60;59.40;;;13.60;100.00;96146.72;4993695;28;19968;-49
2023/09/03 02:36:58;;;;;;;;;;;17.60;59.40;;;13.62;100.00;96155.25;4991966;28;20004;-50
2023/09/03 02:39:23;;;;;;;;;;;17.60;59.40;;;13.60;100.00;96144.03;4992849;28;20008;-47
2023/09/03 02:41:49;;;;;;;;;;;17.70;59.50;;;13.58;100.00;96148.84;4993452;28;20381;-47
2023/09/03 02:44:15;;;;;;;;;;;17.60;59.40;;;13.62;100.00;96154.47;4987386;28;20012;-46
2023/09/03 02:46:41;;;;;;;;;;;17.60;59.50;;;13.65;100.00;96160.06;4994004;28;19913;-49
2023/09/03 02:49:07;;;;;;;;;;;17.60;59.50;;;13.69;100.00;96162.22;4992762;28;19917;-46
2023/09/03 02:51:33;;;;;;;;;;;17.70;59.70;;;13.71;100.00;96162.75;4993227;28;19932;-47
2023/09/03 02:53:59;;;;;;;;;;;17.60;59.60;;;13.72;100.00;96161.69;4993481;28;20013;-48
2023/09/03 02:56:25;;;;;;;;;;;17.70;59.70;;;13.72;100.00;96167.03;4992395;28;19922;-47
2023/09/03 02:58:51;;;;;;;;;;;17.70;59.70;;;13.71;100.00;96170.78;4993514;28;19979;-48
2023/09/03 03:01:19;;;;;;;;;;;17.70;59.70;;;13.65;100.00;96168.09;4991899;28;19917;-50
2023/09/03 03:03:45;;;;;;;;;;;17.70;59.70;;;13.68;100.00;96171.31;4993121;28;20395;-48
2023/09/03 03:06:12;;;;;;;;;;;17.70;59.70;;;13.68;100.00;96179.34;4993621;28;20008;-49
2023/09/03 03:08:38;;;;;;;;;;;17.70;59.70;;;13.67;100.00;96180.44;4992258;28;19956;-49
2023/09/03 03:11:23;;;;;;;;;;;17.70;59.80;;;13.65;100.00;96178.81;4992883;28;19910;-47
2023/09/03 03:13:53;;;;;;;;;;;17.70;59.80;;;13.68;100.00;96174.81;4992167;28;19920;-48
2023/09/03 03:16:18;;;;;;;;;;;17.70;59.80;;;13.71;100.00;96176.13;4993484;28;19924;-48
2023/09/03 03:18:45;;;;;;;;;;;17.70;59.90;;;13.73;100.00;96172.13;4993070;28;20483;-46
2023/09/03 03:21:22;;;;;;;;;;;17.70;59.90;;;13.74;100.00;96175.59;4974222;28;19945;-49
2023/09/03 03:23:50;;;;;;;;;;;17.70;60.00;;;13.71;100.00;96176.94;4992917;28;19952;-49
2023/09/03 03:26:18;;;;;;;;;;;17.70;60.00;;;13.65;100.00;96178.81;4992316;28;20383;-52
2023/09/03 03:28:44;;;;;;;;;;;17.70;59.90;;;13.62;100.00;96181.22;4992785;28;19916;-48
2023/09/03 03:31:16;;;;;;;;;;;17.70;59.90;;;13.55;100.00;96178.81;4991528;28;19916;-50
2023/09/03 03:33:44;;;;;;;;;;;17.70;59.90;;;13.51;100.00;96174.28;4980311;28;19909;-48
2023/09/03 03:36:16;;;;;;;;;;;17.60;59.90;;;13.46;100.00;96179.63;4992796;28;20028;-46
2023/09/03 03:38:43;;;;;;;;;;;17.60;59.90;;;13.42;100.00;96174.03;4984482;28;19919;-48
2023/09/03 03:41:13;;;;;;;;;;;17.60;60.00;;;13.38;100.00;96176.44;4992076;28;19945;-46
2023/09/03 03:43:48;;;;;;;;;;;17.50;60.00;;;13.34;100.00;96172.66;4986139;28;19914;-46
2023/09/03 03:46:17;;;;;;;;;;;17.50;60.10;;;13.30;100.00;96173.47;4989720;28;20372;-46
2023/09/03 03:48:44;;;;;;;;;;;17.40;60.00;;;13.24;100.00;96172.63;4992414;28;19928;-46
2023/09/03 03:51:10;;;;;;;;;;;17.40;60.10;;;13.19;100.00;96177.97;4991013;28;19949;-48
2023/09/03 03:53:37;;;;;;;;;;;17.30;60.00;;;13.13;100.00;96187.88;4992234;28;20358;-45
2023/09/03 03:56:09;;;;;;;;;;;17.30;60.00;;;13.08;100.00;96181.72;4991254;28;19913;-50
2023/09/03 03:58:44;;;;;;;;;;;17.30;60.10;;;12.99;100.00;96196.69;5123183;27;19968;-47
2023/09/03 04:01:16;;;;;;;;;;;17.20;60.00;;;12.95;100.00;96193.75;5105281;28;19947;-47
2023/09/03 04:03:44;;;;;;;;;;;17.20;60.10;;;13.01;100.00;96199.91;5107080;28;19917;-49
2023/09/03 04:06:10;;;;;;;;;;;17.10;60.20;;;13.02;100.00;96198.81;5108632;28;20374;-47
2023/09/03 04:08:39;;;;;;;;;;;17.20;60.40;;;13.02;100.00;96201.50;5100090;28;19983;-48
2023/09/03 04:11:08;;;;;;;;;;;17.10;61.20;;;12.95;100.00;96191.06;5108278;28;19907;-50
2023/09/03 04:13:35;;;;;;;;;;;17.10;60.40;;;12.91;100.00;96203.34;5102906;28;20041;-50
2023/09/03 04:16:19;;;;;;;;;;;17.00;60.40;;;12.84;100.00;96208.94;5101743;28;20378;-47
2023/09/03 04:18:46;;;;;;;;;;;17.00;60.50;;;12.82;100.00;96212.97;5091755;28;20014;-50
2023/09/03 04:21:12;;;;;;;;;;;16.90;60.60;;;12.77;100.00;96219.09;5086341;28;19908;-51
2023/09/03 04:23:38;;;;;;;;;;;16.90;60.70;;;12.80;100.00;96215.09;5107868;28;19928;-53
2023/09/03 04:26:05;;;;;;;;;;;16.90;60.80;;;12.79;100.00;96222.31;5101603;28;19911;-52
2023/09/03 04:28:31;;;;;;;;;;;16.90;60.80;;;12.78;100.00;96223.34;5108615;28;20071;-51
2023/09/03 04:31:00;;;;;;;;;;;16.80;60.80;;;12.75;100.00;96218.53;5108194;28;20303;-47
2023/09/03 04:33:26;;;;;;;;;;;16.80;60.90;;;12.74;100.00;96223.06;5079772;28;19908;-46
2023/09/03 04:36:02;;;;;;;;;;;16.80;61.00;;;12.76;100.00;96222.03;5108529;28;20286;-47
2023/09/03 04:38:29;;;;;;;;;;;16.80;61.10;;;12.78;100.00;96230.56;5106096;28;19918;-46
2023/09/03 04:40:56;;;;;;;;;;;16.80;61.20;;;12.77;100.00;96226.31;5089377;28;19915;-47
2023/09/03 04:43:23;;;;;;;;;;;16.80;61.30;;;12.73;100.00;96232.16;5104004;28;19919;-49
2023/09/03 04:45:53;;;;;;;;;;;16.80;61.30;;;12.74;100.00;96232.97;5106774;28;19914;-49
2023/09/03 04:48:20;;;;;;;;;;;16.80;61.40;;;12.74;100.00;96236.44;5096442;28;19918;-47
2023/09/03 04:50:47;;;;;;;;;;;16.80;61.40;;;12.71;100.00;96239.63;5097472;28;20008;-48
2023/09/03 04:53:13;;;;;;;;;;;16.80;61.40;;;12.73;100.00;96250.09;5094977;28;19918;-46
2023/09/03 04:55:41;;;;;;;;;;;16.80;61.40;;;12.72;100.00;96249.28;5100619;28;19908;-47
2023/09/03 04:58:07;;;;;;;;;;;16.80;61.40;;;12.71;100.00;96260.22;5097078;28;20029;-47
2023/09/03 05:00:34;;;;;;;;;;;16.80;61.50;;;12.70;100.00;96262.09;5106661;28;19908;-51
2023/09/03 05:03:01;;;;;;;;;;;16.80;61.50;;;12.69;100.00;96265.00;5104072;28;19960;-47
2023/09/03 05:05:27;;;;;;;;;;;16.80;61.50;;;12.70;100.00;96263.97;5080500;28;19986;-48
2023/09/03 05:07:53;;;;;;;;;;;16.90;61.60;;;12.72;100.00;96262.66;5098499;28;20326;-48
2023/09/03 05:10:18;;;;;;;;;;;16.80;61.50;;;12.76;100.00;96272.81;5066294;28;19908;-47
2023/09/03 05:12:44;;;;;;;;;;;16.90;61.60;;;12.79;100.00;96274.97;5093771;28;19908;-47
2023/09/03 05:15:12;;;;;;;;;;;17.00;61.70;;;12.83;100.00;96271.50;5082535;28;19915;-47
2023/09/03 05:17:39;;;;;;;;;;;17.00;61.70;;;12.89;100.00;96272.34;5093867;28;19934;-51
2023/09/03 05:20:06;;;;;;;;;;;17.00;61.70;;;12.94;100.00;96270.47;5090098;28;19907;-47
2023/09/03 05:22:33;;;;;;;;;;;17.10;61.80;;;13.02;100.00;96266.47;5093589;28;19950;-50
2023/09/03 05:24:59;;;;;;;;;;;17.20;61.80;;;13.09;100.00;96266.22;5092265;28;19912;-52
2023/09/03 05:27:24;;;;;;;;;;;17.30;61.90;;;13.16;100.00;96278.31;5087167;28;19908;-47
2023/09/03 05:29:50;;;;;;;;;;;17.40;61.90;;;13.23;100.00;96269.22;5074926;28;19918;-53
2023/09/03 05:32:16;;;;;;;;;;;17.40;61.80;;;13.28;100.00;96275.41;5081966;28;19912;-47
2023/09/03 05:34:42;;;;;;;;;;;17.50;61.80;;;13.38;100.00;96280.78;5093351;28;19960;-48
2023/09/03 05:37:08;;;;;;;;;;;17.60;61.80;;;13.46;100.00;96284.00;5090953;28;19912;-48
2023/09/03 05:39:34;;;;;;;;;;;17.70;61.80;;;13.54;100.00;96288.84;5092557;28;19918;-47
2023/09/03 05:42:00;;;;;;;;;;;17.80;61.70;;;13.66;100.00;96294.72;5092970;28;19907;-47
2023/09/03 05:44:25;;;;;;;;;;;18.00;61.80;;;13.77;100.00;96290.19;5087669;28;19960;-50
2023/09/03 05:46:54;;;;;;;;;;;18.10;61.80;;;13.84;100.00;96293.41;5093266;28;19943;-51
2023/09/03 05:49:20;;;;;;;;;;;18.20;61.70;;;13.95;100.00;96294.22;5088488;28;19981;-48
2023/09/03 05:51:45;;;;;;;;;;;18.30;61.70;;;14.07;100.00;96292.88;5086752;28;20307;-50
2023/09/03 05:54:11;;;;;;;;;;;18.50;61.70;;;14.19;100.00;96299.81;5061347;28;19926;-52
2023/09/03 05:56:37;;;;;;;;;;;18.60;61.60;;;14.29;100.00;96297.13;5078153;28;19920;-52
2023/09/03 05:59:08;;;;;;;;;;;18.70;61.60;;;14.41;100.00;96302.19;5089275;28;20381;-46
2023/09/03 06:01:35;;;;;;;;;;;18.90;61.50;;;14.52;100.00;96309.19;5088014;28;19912;-48
2023/09/03 06:04:09;;;;;;;;;;;19.00;61.40;;;14.62;100.00;96319.88;5092518;28;19957;-49
2023/09/03 06:06:37;;;;;;;;;;;19.10;61.30;;;14.72;100.00;96322.53;5083035;28;19923;-51
2023/09/03 06:09:05;;;;;;;;;;;19.30;62.00;;;14.84;100.00;96314.19;5069414;28;19961;-50
2023/09/03 06:11:32;;;;;;;;;;;19.50;61.10;;;14.97;100.00;96324.31;5088786;28;19984;-47
2023/09/03 06:13:58;;;;;;;;;;;19.60;61.10;;;15.09;100.00;96315.16;5084371;28;19908;-47
2023/09/03 06:16:25;;;;;;;;;;;19.80;60.90;;;15.22;100.00;96328.78;5088870;28;19918;-47
2023/09/03 06:18:51;;;;;;;;;;;20.00;60.80;;;15.31;100.00;96323.63;5092890;28;19952;-47
2023/09/03 06:21:17;;;;;;;;;;;20.10;60.70;;;15.28;100.00;96322.31;5058876;28;20374;-46
2023/09/03 06:23:43;;;;;;;;;;;20.30;60.50;;;15.56;100.00;96322.69;5054347;28;19950;-47
2023/09/03 06:26:09;;;;;;;;;;;20.50;60.40;;;15.81;100.00;96327.13;5071471;28;19920;-47
2023/09/03 06:28:35;;;;;;;;;;;20.70;60.30;;;16.06;100.00;96325.34;5072208;28;19908;-48
2023/09/03 06:31:01;;;;;;;;;;;20.90;60.20;;;16.34;100.00;96324.53;5071675;28;19907;-50
2023/09/03 06:33:27;;;;;;;;;;;21.10;60.10;;;16.61;100.00;96336.69;5071222;28;19908;-47
2023/09/03 06:35:53;;;;;;;;;;;21.40;60.00;;;16.91;100.00;96337.47;5071941;28;19937;-50
2023/09/03 06:38:19;;;;;;;;;;;21.80;59.90;;;17.19;100.00;96338.47;5061386;28;19912;-48
2023/09/03 06:40:45;;;;;;;;;;;22.10;59.80;;;17.50;100.00;96344.28;5067993;28;19995;-48
2023/09/03 06:43:11;;;;;;;;;;;22.60;59.60;;;17.80;100.00;96343.09;5070927;28;19908;-49
2023/09/03 06:45:36;;;;;;;;;;;23.00;59.50;;;18.14;100.00;96350.09;5071380;28;19923;-49
2023/09/03 06:48:02;;;;;;;;;;;23.30;59.10;;;18.51;100.00;96362.69;5071830;28;19912;-49
2023/09/03 06:50:28;;;;;;;;;;;23.70;58.80;;;18.87;100.00;96378.31;5069121;28;19908;-50
2023/09/03 06:52:54;;;;;;;;;;;24.10;58.50;;;19.26;96.65;96382.41;5071156;28;19912;-50
2023/09/03 06:55:20;;;;;;;;;;;24.50;58.20;;;19.66;94.41;96383.50;5070968;28;20861;-50
2023/09/03 06:57:46;;;;;;;;;;;25.00;57.90;;;20.08;89.62;96378.78;5071017;28;19916;-51
2023/09/03 07:00:12;;;;;;;;;;;25.40;57.50;;;20.49;85.79;96389.44;5052773;28;20282;-51
2023/09/03 07:02:38;;;;;;;;;;;25.80;57.10;;;20.92;83.34;96386.22;5070480;28;20431;-48
2023/09/03 07:05:04;;;;;;;;;;;26.30;56.70;;;21.28;80.47;96393.41;5053222;28;19927;-51
2023/09/03 07:07:30;;;;;;;;;;;26.60;56.20;;;21.54;77.92;96390.00;5070464;28;19908;-50
2023/09/03 07:09:55;;;;;;;;;;;26.80;55.80;;;21.70;75.40;96393.84;5070868;28;19953;-51
2023/09/03 07:12:22;;;;;;;;;;;27.00;55.40;;;21.83;73.24;96397.53;5071471;28;19990;-47
2023/09/03 07:14:47;;;;;;;;;;;27.20;54.90;;;21.93;71.86;96397.22;5070098;28;19915;-46
2023/09/03 07:17:13;;;;;;;;;;;27.30;54.40;;;22.14;71.33;96400.91;5071074;28;19916;-46
2023/09/03 07:19:39;;;;;;;;;;;27.50;54.20;;;22.32;71.95;96407.16;5068164;28;19912;-48
2023/09/03 07:22:05;;;;;;;;;;;27.60;53.90;;;22.53;70.70;96418.19;5070992;28;20386;-47
2023/09/03 07:24:31;;;;;;;;;;;27.70;53.60;;;22.65;69.70;96422.94;5074309;28;19912;-49
2023/09/03 07:26:56;;;;;;;;;;;28.00;53.40;;;22.83;69.15;96427.22;5074185;28;19912;-46
2023/09/03 07:29:22;;;;;;;;;;;28.20;53.20;;;23.09;68.44;96423.66;5070757;28;19912;-47
2023/09/03 07:31:48;;;;;;;;;;;28.40;52.90;;;23.29;65.98;96431.13;5070194;28;20432;-48
2023/09/03 07:34:14;;;;;;;;;;;28.70;52.80;;;23.54;63.06;96431.34;5070853;28;19916;-48
2023/09/03 07:36:40;;;;;;;;;;;28.90;52.40;;;23.67;62.40;96429.53;5070556;28;19908;-47
2023/09/03 07:39:10;;;;;;;;;;;29.20;52.10;;;23.78;62.09;96433.47;5069127;28;20378;-48
2023/09/03 07:41:37;;;;;;;;;;;29.30;51.80;;;23.91;61.27;96418.84;5052853;28;19922;-47
2023/09/03 07:44:04;;;;;;;;;;;29.40;51.50;;;24.00;61.42;96418.78;5079349;28;19917;-49
2023/09/03 07:46:31;;;;;;;;;;;29.50;51.20;;;24.22;59.63;96414.94;5070505;28;19911;-49
2023/09/03 07:48:57;;;;;;;;;;;29.60;50.80;;;24.39;60.29;96414.81;5068039;28;19954;-45
2023/09/03 07:51:23;;;;;;;;;;;29.80;50.70;;;24.54;58.58;96416.16;5075534;28;20006;-51
2023/09/03 07:53:49;;;;;;;;;;;30.00;50.40;;;24.71;58.37;96407.00;5063179;28;19912;-45
2023/09/03 07:56:16;;;;;;;;;;;30.20;50.00;;;24.88;57.77;96412.28;5063965;28;20325;-45
2023/09/03 07:58:42;;;;;;;;;;;30.40;49.70;;;25.08;56.77;96413.34;5069409;28;19916;-47
2023/09/03 08:01:12;;;;;;;;;;;30.80;49.40;;;25.35;56.72;96417.41;5070167;28;20007;-45
2023/09/03 08:03:43;;;;;;;;;;;31.10;49.00;;;25.65;57.10;96419.09;5062932;28;19908;-50
2023/09/03 08:06:09;;;;;;;;;;;31.10;48.70;;;25.92;55.47;96414.91;5066856;28;20258;-45
2023/09/03 08:08:38;;;;;;;;;;;31.30;48.60;;;26.13;54.69;96417.47;5063729;28;19934;-46
2023/09/03 08:11:04;;;;;;;;;;;31.50;49.00;;;26.35;54.48;96416.97;5057515;28;19912;-45
2023/09/03 08:13:30;;;;;;;;;;;31.70;48.10;;;26.49;52.17;96417.41;5069639;28;19912;-51
2023/09/03 08:15:56;;;;;;;;;;;31.90;47.70;;;26.62;52.04;96417.38;5070408;28;20007;-51
2023/09/03 08:18:22;;;;;;;;;;;32.20;47.20;;;26.82;50.89;96424.53;5070204;28;19965;-47
2023/09/03 08:20:50;;;;;;;;;;;32.50;46.90;;;27.14;50.39;96421.88;5068963;28;19908;-46
2023/09/03 08:23:16;;;;;;;;;;;32.90;46.60;;;27.51;49.78;96429.84;5067208;28;20578;-48
2023/09/03 08:25:42;;;;;;;;;;;33.20;46.40;;;27.66;49.14;96427.09;5082498;28;19908;-47
2023/09/03 08:28:09;;;;;;;;;;;33.60;46.10;;;28.00;48.69;96429.47;5070228;28;20317;-45
2023/09/03 08:30:36;;;;;;;;;;;33.90;45.70;;;27.88;46.88;96424.91;5070136;28;19908;-45
2023/09/03 08:33:02;;;;;;;;;;;34.20;45.30;;;27.93;47.45;96423.84;5069483;28;20007;-46
2023/09/03 08:35:28;;;;;;;;;;;34.50;44.80;;;28.28;46.69;96430.09;5070570;28;20011;-45
2023/09/03 08:37:54;;;;;;;;;;;34.80;45.00;;;28.55;46.36;96436.56;5068811;28;19920;-46
2023/09/03 08:40:21;;;;;;;;;;;35.00;44.10;;;28.79;45.50;96435.44;5069887;28;19915;-46
2023/09/03 08:42:48;;;;;;;;;;;35.20;43.90;;;28.87;45.24;96443.84;5070026;28;19915;-51
2023/09/03 08:45:17;;;;;;;;;;;35.30;43.60;;;28.71;46.26;96433.75;5060169;28;19951;-45
2023/09/03 08:47:44;;;;;;;;;;;35.40;43.30;;;28.92;44.72;96443.53;5073767;28;19912;-47
2023/09/03 08:50:13;;;;;;;;;;;35.50;43.10;;;28.89;45.04;96441.50;5072466;28;19915;-46
2023/09/03 08:52:41;;;;;;;;;;;35.60;42.90;;;28.90;45.55;96432.13;5073855;28;19973;-45
2023/09/03 08:55:10;;;;;;;;;;;35.60;42.70;;;29.08;44.24;96437.97;5072772;28;20398;-46
2023/09/03 08:57:36;;;;;;;;;;;35.70;42.30;;;29.08;44.08;96430.53;5069524;28;20370;-45
2023/09/03 09:00:07;;;;;;;;;;;35.70;41.70;;;29.12;43.39;96425.91;5073428;28;19915;-52
2023/09/03 09:02:35;;;;;;;;;;;35.70;41.50;;;29.24;43.54;96433.19;5072634;28;19915;-51
2023/09/03 09:05:08;;;;;;;;;;;35.70;41.10;;;29.30;42.74;96417.97;5073776;28;19908;-46
2023/09/03 09:07:34;;;;;;;;;;;35.70;40.90;;;29.47;43.50;96420.25;5072592;28;19913;-52
2023/09/03 09:10:16;;;;;;;;;;;35.70;40.80;;;29.27;42.94;96422.28;5072928;28;20643;-46
2023/09/03 09:12:56;;;;;;;;;;;35.80;40.80;;;29.08;42.68;96424.25;5060389;28;20039;-47
2023/09/03 09:15:22;;;;;;;;;;;35.70;41.20;;;29.40;42.67;96427.59;5072412;28;19908;-45
2023/09/03 09:17:51;;;;;;;;;;;35.70;40.50;;;29.55;44.85;96425.84;5073463;28;19919;-48
2023/09/03 09:20:19;;;;;;;;;;;35.80;40.40;;;29.61;44.04;96419.69;5071615;28;19912;-56
2023/09/03 09:22:47;;;;;;;;;;;35.90;40.20;;;29.97;42.77;96423.78;5083559;28;19935;-47
2023/09/03 09:25:25;;;;;;;;;;;36.10;40.20;;;30.07;41.49;96425.09;5073569;28;20358;-47
2023/09/03 09:27:57;;;;;;;;;;;36.20;39.90;;;30.03;41.87;96427.03;5073321;28;19948;-47
2023/09/03 09:30:25;;;;;;;;;;;36.40;39.70;;;30.12;43.15;96427.53;5072904;28;19999;-53
2023/09/03 09:33:04;;;;;;;;;;;36.60;40.20;;;30.11;42.55;96441.63;5072153;28;19955;-47
2023/09/03 09:35:30;;;;;;;;;;;36.70;39.50;;;29.93;42.90;96438.66;5060803;28;19916;-48
2023/09/03 09:38:04;;;;;;;;;;;36.70;38.80;;;30.10;43.76;96440.84;5071164;28;19965;-46
2023/09/03 09:40:31;;;;;;;;;;;36.60;38.60;;;29.80;43.40;96443.53;5072685;28;19965;-48
2023/09/03 09:43:04;;;;;;;;;;;36.60;38.40;;;29.43;44.08;96435.09;5072871;28;19908;-49
2023/09/03 09:45:46;;;;;;;;;;;36.40;38.00;;;29.15;44.45;96427.94;5072562;28;19916;-47
2023/09/03 09:48:12;;;;;;;;;;;36.30;37.80;;;29.11;44.74;96421.56;5072695;28;19908;-46
2023/09/03 09:50:42;;;;;;;;;;;36.10;37.70;;;28.68;46.13;96428.97;5074351;28;19907;-49
2023/09/03 09:53:23;;;;;;;;;;;35.90;37.60;;;28.68;46.18;96423.50;5080702;28;19914;-47
2023/09/03 09:56:01;;;;;;;;;;;35.70;37.50;;;28.30;47.45;96408.63;5058803;28;19954;-47
2023/09/03 09:58:39;;;;;;;;;;;35.70;37.60;;;28.38;48.37;96417.75;5072175;28;19951;-50
2023/09/03 10:01:06;;;;;;;;;;;35.50;37.50;;;28.58;49.08;96415.84;5072584;28;19957;-49
2023/09/03 10:03:47;;;;;;;;;;;35.50;37.60;;;28.51;47.07;96416.50;5071803;28;19944;-50
2023/09/03 10:06:15;;;;;;;;;;;35.50;37.70;;;28.63;48.12;96420.25;5072375;28;19912;-48
2023/09/03 10:08:44;;;;;;;;;;;35.60;37.70;;;28.47;48.37;96407.41;5078355;28;19949;-47
2023/09/03 10:11:10;;;;;;;;;;;35.70;37.70;;;28.56;49.05;96420.91;5054682;28;19908;-49
2023/09/03 10:13:39;;;;;;;;;;;35.70;37.70;;;28.37;48.63;96413.44;5071640;28;19915;-46
2023/09/03 10:16:08;;;;;;;;;;;35.60;37.60;;;28.25;49.09;96408.09;5072257;28;19911;-48
2023/09/03 10:18:49;;;;;;;;;;;35.60;37.60;;;27.98;49.99;96410.66;5071568;28;19912;-49
2023/09/03 10:21:24;;;;;;;;;;;35.40;37.60;;;28.10;49.31;96405.03;5053468;28;19914;-45
2023/09/03 10:23:52;;;;;;;;;;;35.40;37.70;;;28.11;50.18;96414.06;5072099;28;19908;-46
2023/09/03 10:26:59;;;;;;;;;;;35.30;37.70;;;28.36;49.17;96409.91;5071558;28;20408;-46
2023/09/03 10:29:28;;;;;;;;;;;35.20;37.80;;;28.47;49.79;96412.91;4970613;28;19910;-46
2023/09/03 10:31:57;;;;;;;;;;;35.20;37.90;;;28.53;49.71;96402.44;5056814;28;19966;-46
2023/09/03 10:34:23;;;;;;;;;;;35.30;37.80;;;28.94;49.82;96400.09;5054265;28;19908;-51
2023/09/03 10:37:10;;;;;;;;;;;35.40;37.90;;;28.75;46.60;96395.44;5071674;28;19919;-46
2023/09/03 10:39:43;;;;;;;;;;;35.70;37.80;;;28.81;47.50;96397.50;5077068;28;19912;-48
2023/09/03 10:42:23;;;;;;;;;;;35.80;37.50;;;28.91;47.40;96395.34;5092091;28;19953;-49
2023/09/03 10:44:51;;;;;;;;;;;36.00;37.50;;;29.13;47.83;96400.06;5078158;28;19914;-45
2023/09/03 10:47:18;;;;;;;;;;;36.10;37.40;;;29.20;46.46;96396.66;5071793;28;19961;-47
2023/09/03 10:49:52;;;;;;;;;;;36.10;37.30;;;29.57;46.29;96401.56;5070519;28;20412;-47
2023/09/03 10:52:31;;;;;;;;;;;36.40;37.40;;;29.56;45.36;96392.56;5072010;28;19908;-49
2023/09/03 10:55:20;;;;;;;;;;;36.60;37.10;;;29.39;46.18;96401.28;5059268;28;19909;-51
2023/09/03 10:58:08;;;;;;;;;;;36.80;36.70;;;29.39;46.24;96396.59;5060808;28;20322;-53
2023/09/03 11:00:34;;;;;;;;;;;36.90;36.60;;;29.73;45.65;96394.00;5070740;28;19908;-54
2023/09/03 11:03:21;;;;;;;;;;;37.00;36.50;;;29.85;46.23;96401.25;5070375;28;19923;-50
2023/09/03 11:06:23;;;;;;;;;;;37.30;36.40;;;29.86;45.11;96403.63;5060513;28;19908;-46
2023/09/03 11:09:12;;;;;;;;;;;37.30;36.10;;;30.04;45.39;96411.31;5059866;28;19908;-47
2023/09/03 11:11:39;;;;;;;;;;;37.40;36.00;;;29.80;45.73;96399.59;5071178;28;20279;-47
2023/09/03 11:14:06;;;;;;;;;;;37.50;35.90;;;30.11;45.95;96406.72;5052656;28;19912;-47
2023/09/03 11:16:39;;;;;;;;;;;37.60;35.90;;;29.93;44.80;96403.75;5071366;28;19908;-48
2023/09/03 11:19:08;;;;;;;;;;;37.70;35.70;;;30.03;44.24;96396.03;5071036;28;20282;-54
2023/09/03 11:21:38;;;;;;;;;;;37.70;35.50;;;30.08;44.96;96403.91;5051977;28;19920;-53